Airfield :
LOGIN :

Register | Disclaimer

   EN    FR    IT 

 










Legend :    VFR   Marginal VFR   IFR   Intensive IFR   Very Intensive IFR
Visi :
Ceiling :
>= 8 km
>= 3000ft
5 to 8 km
1000 to 3000 ft
1500m to 5 km
500 to 1000 ft
800 to 1500m
200 to 500 ft
< 800m
< 200 ft
Symbols :   Thunderstorms  Fog  Heavy snow  Heavy precipitations  Wind > 20 kt
SIGMETs :     Misc.  Thunderstorms  Icing  Turbulence  Mountain Waves  Volcanic Ashes






- Airport Elevation : 1345 ft
- IATA code : FRZ


ETHF - Fritzlar

CURRENT METAR :
  • 200820Z 36001KT 5000 VCFG SCT004 BKN070 17/15 Q1021 WHT WHT BECMG BLU

EXPIRED METARs :
  • 200800Z 03002KT 5000 VCFG BKN003 17/15 Q1021 YLO YLO BECMG BLU
  • 200743Z VRB02KT 4000 VCFG OVC003 16/15 Q1021 YLO YLO BECMG BLU
  • 200720Z 07002KT 2000 VCFG OVC002 15/15 Q1021 AMB AMB BECMG YLO
  • 200645Z 15001KT 1600 R30/4100N VCFG OVC001 15/14 Q1021 RED RED BECMG YLO
  • 200620Z 07001KT 1300 R30/3100N VCFG OVC001 15/14 Q1021 RED RED BECMG YLO
  • 200606Z 00000KT 0800 R30/2600N FG VV001 15/14 Q1021 RED RED BECMG YLO
  • 200520Z VRB02KT 0400 FG VV001 14/14 Q1022 RED RED BECMG YLO

TAF TAF ETHF
Valid from the 20 at 08:00 until the 20 at 17:00 UTC


200709Z 2008/2017 VRB03KT 3000 BR VV003
BECMG 2008/2010 24006KT 8000 NSW BKN025
TEMPO 2014/2017 27020G40KT 1000 TSRAGR SCT020 BKN040CB



MET'MAP, your aeronautical weather chart ! - Copyright ORBIFLY December 2007 - Disclaimer

ORBIFLY MET'MAP TEAM :

Programming & Development : Alexandra Zaïnal
Original concept : Baudouin d'Aumeries
Technical & hardware support : Manuel Goepfert
Assistance : Marc-Olivier Méhu

Contact : metmap@orbifly.com




SOURCES & CREDITS :

   NOAA